createdAt,value
2022-12-18T00:01:17.475Z,19.57
2022-12-18T00:03:44.757Z,19.30
2022-12-18T00:06:12.517Z,19.00
2022-12-18T00:08:39.458Z,18.20
2022-12-18T00:11:08.022Z,18.13
2022-12-18T00:13:35.316Z,18.10
2022-12-18T00:16:06.963Z,19.03
2022-12-18T00:18:33.705Z,20.43
2022-12-18T00:21:02.423Z,20.70
2022-12-18T00:23:30.050Z,19.27
2022-12-18T00:26:00.819Z,20.07
2022-12-18T00:28:27.558Z,20.07
2022-12-18T00:31:02.815Z,20.13
2022-12-18T00:33:29.895Z,19.53
2022-12-18T00:36:05.196Z,18.87
2022-12-18T00:38:32.895Z,18.83
2022-12-18T00:40:59.345Z,19.10
2022-12-18T00:43:26.494Z,17.33
2022-12-18T00:45:53.122Z,16.83
2022-12-18T00:48:19.916Z,15.97
2022-12-18T00:50:46.453Z,14.70
2022-12-18T00:53:13.117Z,14.30
2022-12-18T00:55:43.921Z,13.90
2022-12-18T00:58:12.118Z,13.47
2022-12-18T01:00:39.301Z,14.07
2022-12-18T01:03:06.339Z,14.27
2022-12-18T01:05:33.660Z,14.00
2022-12-18T01:08:00.415Z,16.63
2022-12-18T01:10:28.145Z,17.03
2022-12-18T01:12:57.806Z,16.47
2022-12-18T01:15:24.236Z,17.80
2022-12-18T01:17:53.172Z,18.67
2022-12-18T01:20:20.051Z,17.23
2022-12-18T01:22:46.497Z,17.27
2022-12-18T01:25:12.914Z,14.50
2022-12-18T01:27:39.369Z,13.93
2022-12-18T01:30:06.373Z,13.20
2022-12-18T01:32:33.466Z,12.50
2022-12-18T01:35:00.115Z,13.33
2022-12-18T01:37:28.391Z,16.00
2022-12-18T01:39:55.737Z,16.97
2022-12-18T01:42:22.856Z,16.03
2022-12-18T01:44:57.986Z,16.97
2022-12-18T01:47:35.826Z,16.10
2022-12-18T01:50:31.708Z,15.50
2022-12-18T01:53:07.375Z,16.07
2022-12-18T01:55:45.791Z,14.67
2022-12-18T01:58:12.300Z,13.47
2022-12-18T02:00:38.878Z,13.67
2022-12-18T02:03:05.363Z,12.87
2022-12-18T02:05:46.846Z,13.30
2022-12-18T02:08:34.920Z,13.17
2022-12-18T02:11:11.774Z,13.13
2022-12-18T02:13:51.770Z,13.40
2022-12-18T02:16:34.972Z,12.80
2022-12-18T02:19:16.698Z,12.30
2022-12-18T02:21:56.867Z,12.77
2022-12-18T02:24:43.975Z,14.97
2022-12-18T02:27:11.611Z,13.03
2022-12-18T02:29:45.061Z,12.70
2022-12-18T02:32:17.676Z,11.57
2022-12-18T02:34:46.961Z,13.50
2022-12-18T02:37:18.930Z,13.23
2022-12-18T02:39:49.717Z,12.50
2022-12-18T02:42:18.506Z,11.87
2022-12-18T02:44:50.975Z,11.23
2022-12-18T02:47:23.473Z,11.77
2022-12-18T02:49:59.140Z,12.43
2022-12-18T02:52:45.754Z,12.57
2022-12-18T02:55:33.616Z,12.07
2022-12-18T02:58:13.763Z,13.83
2022-12-18T03:00:49.597Z,13.07
2022-12-18T03:03:29.294Z,12.97
2022-12-18T03:06:11.147Z,11.80
2022-12-18T03:08:42.859Z,12.50
2022-12-18T03:11:12.575Z,11.73
2022-12-18T03:13:54.804Z,12.50
2022-12-18T03:16:29.319Z,12.43
2022-12-18T03:19:01.082Z,12.70
2022-12-18T03:21:35.692Z,13.20
2022-12-18T03:24:06.855Z,13.17
2022-12-18T03:26:38.449Z,13.50
2022-12-18T03:29:14.005Z,14.87
2022-12-18T03:31:44.176Z,13.80
2022-12-18T03:34:16.226Z,12.07
2022-12-18T03:36:46.230Z,11.93
2022-12-18T03:39:15.156Z,11.37
2022-12-18T03:42:02.721Z,12.17
2022-12-18T03:44:38.101Z,11.57
2022-12-18T03:47:15.589Z,12.20
2022-12-18T03:49:48.954Z,10.33
2022-12-18T03:52:35.874Z,11.47
2022-12-18T03:55:04.207Z,11.03
2022-12-18T03:57:33.406Z,11.70
2022-12-18T04:00:07.819Z,10.80
2022-12-18T04:02:55.159Z,10.50
2022-12-18T04:05:30.706Z,10.67
2022-12-18T04:07:58.619Z,10.87
2022-12-18T04:10:25.330Z,9.70
2022-12-18T04:12:51.882Z,9.73
2022-12-18T04:15:19.445Z,9.00
2022-12-18T04:17:50.551Z,8.70
2022-12-18T04:20:20.766Z,9.70
2022-12-18T04:22:48.119Z,9.73
2022-12-18T04:25:14.995Z,9.80
2022-12-18T04:27:53.558Z,9.87
2022-12-18T04:30:19.999Z,9.70
2022-12-18T04:32:52.042Z,9.13
2022-12-18T04:35:19.726Z,8.90
2022-12-18T04:37:46.892Z,10.10
2022-12-18T04:40:13.457Z,10.60
2022-12-18T04:42:43.464Z,10.47
2022-12-18T04:45:10.260Z,10.23
2022-12-18T04:47:36.765Z,9.90
2022-12-18T04:50:03.567Z,9.40
2022-12-18T04:52:30.208Z,9.60
2022-12-18T04:54:56.648Z,9.20
2022-12-18T04:57:23.124Z,9.00
2022-12-18T04:59:49.637Z,8.80
2022-12-18T05:02:16.241Z,8.90
2022-12-18T05:04:42.735Z,8.10
2022-12-18T05:07:09.141Z,8.00
2022-12-18T05:09:36.248Z,8.93
2022-12-18T05:12:02.893Z,8.43
2022-12-18T05:14:30.300Z,9.43
2022-12-18T05:17:00.637Z,8.57
2022-12-18T05:19:27.723Z,8.40
2022-12-18T05:21:54.116Z,7.70
2022-12-18T05:24:20.745Z,8.03
2022-12-18T05:26:47.434Z,8.40
2022-12-18T05:29:14.144Z,8.73
2022-12-18T05:31:40.950Z,8.47
2022-12-18T05:34:09.460Z,8.50
2022-12-18T05:36:37.141Z,8.73
2022-12-18T05:39:04.086Z,8.03
2022-12-18T05:41:30.887Z,8.50
2022-12-18T05:43:57.660Z,8.37
2022-12-18T05:46:25.243Z,9.80
2022-12-18T05:48:52.029Z,8.80
2022-12-18T05:51:22.002Z,8.70
2022-12-18T05:53:49.129Z,8.90
2022-12-18T05:56:21.445Z,9.00
2022-12-18T05:58:48.313Z,8.87
2022-12-18T06:01:20.086Z,9.47
2022-12-18T06:03:47.262Z,9.23
2022-12-18T06:06:19.877Z,9.57
2022-12-18T06:08:47.265Z,9.93
2022-12-18T06:11:14.392Z,10.27
2022-12-18T06:13:41.226Z,9.50
2022-12-18T06:16:09.105Z,8.90
2022-12-18T06:18:35.680Z,9.17
2022-12-18T06:21:04.291Z,9.07
2022-12-18T06:23:30.965Z,9.03
2022-12-18T06:25:57.718Z,8.93
2022-12-18T06:28:24.206Z,7.93
2022-12-18T06:30:51.323Z,9.40
2022-12-18T06:33:18.251Z,8.40
2022-12-18T06:35:44.860Z,8.97
2022-12-18T06:38:11.321Z,8.23
2022-12-18T06:40:39.455Z,8.87
2022-12-18T06:43:06.833Z,9.23
2022-12-18T06:45:33.281Z,8.37
2022-12-18T06:47:59.799Z,8.27
2022-12-18T06:50:26.438Z,8.97
2022-12-18T06:52:52.966Z,8.73
2022-12-18T06:55:19.657Z,9.50
2022-12-18T06:57:46.101Z,9.20
2022-12-18T07:00:12.949Z,9.43
2022-12-18T07:02:39.504Z,9.10
2022-12-18T07:05:10.647Z,8.63
2022-12-18T07:07:37.775Z,8.90
2022-12-18T07:10:04.833Z,8.80
2022-12-18T07:12:31.326Z,9.30
2022-12-18T07:14:57.900Z,9.17
2022-12-18T07:17:24.348Z,8.90
2022-12-18T07:19:50.910Z,8.90
2022-12-18T07:22:17.535Z,8.60
2022-12-18T07:24:44.188Z,9.03
2022-12-18T07:27:10.641Z,9.50
2022-12-18T07:29:37.101Z,8.53
2022-12-18T07:32:04.729Z,9.83
2022-12-18T07:34:31.211Z,9.90
2022-12-18T07:36:58.835Z,8.43
2022-12-18T07:39:25.392Z,8.93
2022-12-18T07:42:10.627Z,8.90
2022-12-18T07:44:40.192Z,9.27
2022-12-18T07:47:11.768Z,9.67
2022-12-18T07:49:38.951Z,9.17
2022-12-18T07:52:05.514Z,9.43
2022-12-18T07:54:32.039Z,9.33
2022-12-18T07:56:58.558Z,9.70
2022-12-18T07:59:25.012Z,10.17
2022-12-18T08:01:51.672Z,9.77
2022-12-18T08:04:18.666Z,10.03
2022-12-18T08:06:47.905Z,10.10
2022-12-18T08:09:15.021Z,9.50
2022-12-18T08:11:41.440Z,9.73
2022-12-18T08:14:07.924Z,9.50
2022-12-18T08:16:34.588Z,10.10
2022-12-18T08:19:01.903Z,9.83
2022-12-18T08:21:31.328Z,9.50
2022-12-18T08:24:00.791Z,10.37
2022-12-18T08:26:30.741Z,9.83
2022-12-18T08:28:58.973Z,10.07
2022-12-18T08:31:27.975Z,9.60
2022-12-18T08:33:55.554Z,9.77
2022-12-18T08:36:22.967Z,10.13
2022-12-18T08:38:49.745Z,10.37
2022-12-18T08:41:18.145Z,10.00
2022-12-18T08:44:03.819Z,9.80
2022-12-18T08:46:38.824Z,10.03
2022-12-18T08:49:07.348Z,10.60
2022-12-18T08:51:34.720Z,10.00
2022-12-18T08:54:02.012Z,10.40
2022-12-18T08:56:30.827Z,9.67
2022-12-18T08:58:57.859Z,10.63
2022-12-18T09:01:25.249Z,10.17
2022-12-18T09:03:52.265Z,10.40
2022-12-18T09:06:20.653Z,10.07
2022-12-18T09:08:47.954Z,10.27
2022-12-18T09:11:19.658Z,9.67
2022-12-18T09:13:46.159Z,9.07
2022-12-18T09:16:12.675Z,9.57
2022-12-18T09:18:39.533Z,8.53
2022-12-18T09:21:17.465Z,7.93
2022-12-18T09:23:44.507Z,8.40
2022-12-18T09:26:11.171Z,7.03
2022-12-18T09:28:37.984Z,8.47
2022-12-18T09:31:08.478Z,8.10
2022-12-18T09:33:38.296Z,7.83
2022-12-18T09:36:07.538Z,8.23
2022-12-18T09:38:34.869Z,7.80
2022-12-18T09:41:17.864Z,7.40
2022-12-18T09:43:52.359Z,8.13
2022-12-18T09:46:30.333Z,7.50
2022-12-18T09:49:02.149Z,8.40
2022-12-18T09:51:33.894Z,8.03
2022-12-18T09:54:05.551Z,8.10
2022-12-18T09:56:37.954Z,8.27
2022-12-18T09:59:05.580Z,8.50
2022-12-18T10:01:41.754Z,7.90
2022-12-18T10:04:11.091Z,7.60
2022-12-18T10:06:58.160Z,7.90
2022-12-18T10:09:58.377Z,7.90
2022-12-18T10:12:44.368Z,7.67
2022-12-18T10:15:32.917Z,8.00
2022-12-18T10:18:17.396Z,8.13
2022-12-18T10:20:53.233Z,8.27
2022-12-18T10:23:28.061Z,8.37
2022-12-18T10:26:05.016Z,8.00
2022-12-18T10:28:34.107Z,8.10
2022-12-18T10:31:00.894Z,8.33
2022-12-18T10:33:33.755Z,8.50
2022-12-18T10:36:02.536Z,7.30
2022-12-18T10:38:31.436Z,8.03
2022-12-18T10:41:00.679Z,8.33
2022-12-18T10:43:33.235Z,7.60
2022-12-18T10:46:12.782Z,8.47
2022-12-18T10:48:50.081Z,6.83
2022-12-18T10:51:38.214Z,7.40
2022-12-18T10:54:07.640Z,7.53
2022-12-18T10:56:37.900Z,6.67
2022-12-18T10:59:09.566Z,7.23
2022-12-18T11:01:58.355Z,6.47
2022-12-18T11:04:30.763Z,6.90
2022-12-18T11:07:05.456Z,6.67
2022-12-18T11:09:34.936Z,5.90
2022-12-18T11:12:16.974Z,5.63
2022-12-18T11:14:48.305Z,5.70
2022-12-18T11:17:34.412Z,5.53
2022-12-18T11:20:04.252Z,5.83
2022-12-18T11:22:34.276Z,6.53
2022-12-18T11:25:32.654Z,6.17
2022-12-18T11:28:02.579Z,5.80
2022-12-18T11:30:34.862Z,5.83
2022-12-18T11:33:04.764Z,6.97
2022-12-18T11:35:48.615Z,5.63
2022-12-18T11:38:21.022Z,5.70
2022-12-18T11:40:54.200Z,5.83
2022-12-18T11:43:30.868Z,5.37
2022-12-18T11:46:05.384Z,5.80
2022-12-18T11:48:39.094Z,6.80
2022-12-18T11:51:14.441Z,6.23
2022-12-18T11:53:40.972Z,6.57
2022-12-18T11:56:42.517Z,5.97
2022-12-18T11:59:34.127Z,5.30
2022-12-18T12:02:20.832Z,5.40
2022-12-18T12:05:18.071Z,5.67
2022-12-18T12:08:01.999Z,6.30
2022-12-18T12:10:37.782Z,6.27
2022-12-18T12:13:31.690Z,5.60
2022-12-18T12:16:19.935Z,5.33
2022-12-18T12:19:00.904Z,5.03
2022-12-18T12:21:35.528Z,5.10
2022-12-18T12:24:05.002Z,5.23
2022-12-18T12:26:44.636Z,5.23
2022-12-18T12:29:33.682Z,5.00
2022-12-18T12:32:14.048Z,4.73
2022-12-18T12:35:01.011Z,4.57
2022-12-18T12:37:46.312Z,4.70
2022-12-18T12:40:50.225Z,4.63
2022-12-18T12:43:21.239Z,4.87
2022-12-18T12:45:55.802Z,6.30
2022-12-18T12:48:48.841Z,4.33
2022-12-18T12:51:33.130Z,4.57
2022-12-18T12:54:01.100Z,4.60
2022-12-18T12:56:59.854Z,5.27
2022-12-18T12:59:32.008Z,5.03
2022-12-18T13:02:09.963Z,4.70
2022-12-18T13:04:47.760Z,4.87
2022-12-18T13:07:28.847Z,4.37
2022-12-18T13:10:25.637Z,4.30
2022-12-18T13:12:57.313Z,4.07
2022-12-18T13:15:44.190Z,4.00
2022-12-18T13:18:10.660Z,4.60
2022-12-18T13:20:52.488Z,5.07
2022-12-18T13:23:51.435Z,4.87
2022-12-18T13:45:39.713Z,4.30
2022-12-18T13:48:17.382Z,3.90
2022-12-18T13:50:48.910Z,4.03
2022-12-18T13:53:30.555Z,3.73
2022-12-18T13:55:58.278Z,3.67
2022-12-18T13:58:24.744Z,3.87
2022-12-18T14:00:51.182Z,4.30
2022-12-18T14:03:22.487Z,3.73
2022-12-18T14:06:08.647Z,3.57
2022-12-18T14:08:40.673Z,4.63
2022-12-18T14:11:11.762Z,4.00
2022-12-18T14:13:42.215Z,3.80
2022-12-18T14:16:15.118Z,4.40
2022-12-18T14:19:08.637Z,4.10
2022-12-18T14:21:47.490Z,3.90
2022-12-18T14:24:21.012Z,4.50
2022-12-18T14:26:50.536Z,4.67
2022-12-18T14:29:21.563Z,4.70
2022-12-18T14:32:06.961Z,5.23
2022-12-18T14:34:34.832Z,4.60
2022-12-18T14:37:01.319Z,3.93
2022-12-18T14:39:28.030Z,4.77
2022-12-18T14:41:54.678Z,4.57
2022-12-18T14:44:22.367Z,4.90
2022-12-18T14:46:51.523Z,5.33
2022-12-18T14:49:30.707Z,5.43
2022-12-18T14:52:02.410Z,5.90
2022-12-18T14:54:30.726Z,6.03
2022-12-18T14:57:22.211Z,5.70
2022-12-18T14:59:48.783Z,5.87
2022-12-18T15:02:20.025Z,5.90
2022-12-18T15:04:47.049Z,6.77
2022-12-18T15:07:24.652Z,6.60
2022-12-18T15:10:09.868Z,6.87
2022-12-18T15:12:44.995Z,7.23
2022-12-18T15:15:43.291Z,7.00
2022-12-18T15:18:09.720Z,6.40
2022-12-18T15:21:10.088Z,7.07
2022-12-18T15:23:44.796Z,7.17
2022-12-18T15:26:15.414Z,7.73
2022-12-18T15:28:56.510Z,7.67
2022-12-18T15:31:35.956Z,7.67
2022-12-18T15:34:08.433Z,7.20
2022-12-18T15:36:37.349Z,9.00
2022-12-18T15:39:06.557Z,8.77
2022-12-18T15:41:36.082Z,7.80
2022-12-18T15:44:04.080Z,8.20
2022-12-18T15:46:31.799Z,8.30
2022-12-18T15:49:02.177Z,7.57
2022-12-18T15:51:34.760Z,8.10
2022-12-18T15:54:07.227Z,7.93
2022-12-18T15:56:52.523Z,7.53
2022-12-18T15:59:21.317Z,8.03
2022-12-18T16:01:50.242Z,7.97
2022-12-18T16:04:21.198Z,6.93
2022-12-18T16:07:13.839Z,8.33
2022-12-18T16:09:35.481Z,8.00
2022-12-18T16:12:03.399Z,7.10
2022-12-18T16:14:31.175Z,6.83
2022-12-18T16:17:03.293Z,6.83
2022-12-18T16:19:30.640Z,6.60
2022-12-18T16:21:59.794Z,7.20
2022-12-18T16:24:29.384Z,7.53
2022-12-18T16:26:59.720Z,7.20
2022-12-18T16:29:28.604Z,7.83
2022-12-18T16:31:57.208Z,7.23
2022-12-18T16:34:29.701Z,6.37
2022-12-18T16:37:05.513Z,7.33
2022-12-18T16:39:34.822Z,7.13
2022-12-18T16:42:06.030Z,7.00
2022-12-18T16:44:34.394Z,6.97
2022-12-18T16:47:02.888Z,7.47
2022-12-18T16:49:30.191Z,6.97
2022-12-18T16:51:56.914Z,6.43
2022-12-18T16:54:23.901Z,7.07
2022-12-18T16:56:52.069Z,7.00
2022-12-18T16:59:18.988Z,6.70
2022-12-18T17:01:47.114Z,6.17
2022-12-18T17:04:14.616Z,6.33
2022-12-18T17:06:43.478Z,6.23
2022-12-18T17:09:17.889Z,6.57
2022-12-18T17:11:44.451Z,5.80
2022-12-18T17:14:14.908Z,6.53
2022-12-18T17:16:41.613Z,6.03
2022-12-18T17:19:15.179Z,6.60
2022-12-18T17:21:45.135Z,6.93
2022-12-18T17:24:11.891Z,6.27
2022-12-18T17:26:38.336Z,7.03
2022-12-18T17:29:05.268Z,6.90
2022-12-18T17:31:32.453Z,7.00
2022-12-18T17:33:59.424Z,6.97
2022-12-18T17:36:28.976Z,6.87
2022-12-18T17:38:57.407Z,6.43
2022-12-18T17:41:24.825Z,6.50
2022-12-18T17:44:03.542Z,6.40
2022-12-18T17:46:32.179Z,6.00
2022-12-18T17:49:00.386Z,5.97
2022-12-18T17:51:27.469Z,6.17
2022-12-18T17:53:54.211Z,6.77
2022-12-18T17:56:22.686Z,6.40
2022-12-18T17:58:50.336Z,6.27
2022-12-18T18:01:21.046Z,6.30
2022-12-18T18:03:49.195Z,5.50
2022-12-18T18:06:21.036Z,5.90
2022-12-18T18:08:47.993Z,5.47
2022-12-18T18:11:36.363Z,6.10
2022-12-18T18:14:06.303Z,6.00
2022-12-18T18:16:36.867Z,5.47
2022-12-18T18:19:06.749Z,5.70
2022-12-18T18:21:34.168Z,6.30
2022-12-18T18:24:03.086Z,5.87
2022-12-18T18:26:35.015Z,6.30
2022-12-18T18:29:03.959Z,6.20
2022-12-18T18:31:35.280Z,6.10
2022-12-18T18:34:07.213Z,6.93
2022-12-18T18:36:34.661Z,6.20
2022-12-18T18:39:03.666Z,6.53
2022-12-18T18:41:30.653Z,6.87
2022-12-18T18:43:58.443Z,6.50
2022-12-18T18:46:25.130Z,6.33
2022-12-18T18:48:51.712Z,6.70
2022-12-18T18:51:21.090Z,6.57
2022-12-18T18:53:49.643Z,7.00
2022-12-18T18:56:45.404Z,6.80
2022-12-18T18:59:05.815Z,7.43
2022-12-18T19:01:32.932Z,7.60
2022-12-18T19:04:00.616Z,7.40
2022-12-18T19:06:28.583Z,7.63
2022-12-18T19:08:57.259Z,7.63
2022-12-18T19:11:44.548Z,7.30
2022-12-18T19:14:14.672Z,7.47
2022-12-18T19:16:41.729Z,7.47
2022-12-18T19:19:09.253Z,7.33
2022-12-18T19:21:37.579Z,8.07
2022-12-18T19:24:05.060Z,7.63
2022-12-18T19:26:31.632Z,7.77
2022-12-18T19:29:05.720Z,8.23
2022-12-18T19:31:36.521Z,7.77
2022-12-18T19:34:05.239Z,6.73
2022-12-18T19:36:33.828Z,7.83
2022-12-18T19:39:02.659Z,7.43
2022-12-18T19:41:31.329Z,7.80
2022-12-18T19:43:59.657Z,8.17
2022-12-18T19:46:26.318Z,7.10
2022-12-18T19:48:52.871Z,7.57
2022-12-18T19:51:25.045Z,7.50
2022-12-18T19:53:58.180Z,7.27
2022-12-18T19:56:28.800Z,8.03
2022-12-18T19:58:55.492Z,8.03
2022-12-18T20:01:24.030Z,8.60
2022-12-18T20:03:51.710Z,8.27
2022-12-18T20:06:29.586Z,7.67
2022-12-18T20:09:00.325Z,8.10
2022-12-18T20:11:30.683Z,8.60
2022-12-18T20:13:57.706Z,8.13
2022-12-18T20:16:27.637Z,8.03
2022-12-18T20:18:55.301Z,8.67
2022-12-18T20:21:22.955Z,8.40
2022-12-18T20:23:50.293Z,9.37
2022-12-18T20:26:16.818Z,8.73
2022-12-18T20:28:43.287Z,8.77
2022-12-18T20:31:13.808Z,8.10
2022-12-18T20:33:42.248Z,8.87
2022-12-18T20:36:14.452Z,8.53
2022-12-18T20:38:42.400Z,8.40
2022-12-18T20:41:16.530Z,8.23
2022-12-18T20:43:44.323Z,7.60
2022-12-18T20:46:13.508Z,8.30
2022-12-18T20:48:40.345Z,8.00
2022-12-18T20:51:12.574Z,8.77
2022-12-18T20:53:40.262Z,8.43
2022-12-18T20:56:21.032Z,8.30
2022-12-18T20:58:51.774Z,8.60
2022-12-18T21:01:23.506Z,9.43
2022-12-18T21:03:50.819Z,9.43
2022-12-18T21:06:19.349Z,8.23
2022-12-18T21:08:46.722Z,8.77
2022-12-18T21:11:37.880Z,9.20
2022-12-18T21:14:11.654Z,8.27
2022-12-18T21:16:40.058Z,8.03
2022-12-18T21:19:07.243Z,8.10
2022-12-18T21:21:38.405Z,8.23
2022-12-18T21:24:06.090Z,8.93
2022-12-18T21:26:33.044Z,8.23
2022-12-18T21:29:02.621Z,8.77
2022-12-18T21:31:32.213Z,9.03
2022-12-18T21:34:02.044Z,8.93
2022-12-18T21:36:29.436Z,9.13
2022-12-18T21:38:56.815Z,9.77
2022-12-18T21:41:56.175Z,9.27
2022-12-18T21:44:23.742Z,9.40
2022-12-18T21:46:56.157Z,9.23
2022-12-18T21:49:26.449Z,9.23
2022-12-18T21:51:55.345Z,8.87
2022-12-18T21:54:22.645Z,10.40
2022-12-18T21:56:49.084Z,10.53
2022-12-18T21:59:18.501Z,10.67
2022-12-18T22:01:45.780Z,10.20
2022-12-18T22:04:12.929Z,9.90
2022-12-18T22:06:39.935Z,10.17
2022-12-18T22:09:06.761Z,9.90
2022-12-18T22:11:33.238Z,10.07
2022-12-18T22:13:59.868Z,10.07
2022-12-18T22:16:26.426Z,10.60
2022-12-18T22:18:52.973Z,9.87
2022-12-18T22:21:31.371Z,9.67
2022-12-18T22:24:06.398Z,10.07
2022-12-18T22:26:39.843Z,9.60
2022-12-18T22:29:25.940Z,9.63
2022-12-18T22:31:52.528Z,9.93
2022-12-18T22:34:22.761Z,10.67
2022-12-18T22:36:50.455Z,10.23
2022-12-18T22:39:18.280Z,11.00
2022-12-18T22:41:45.047Z,10.17
2022-12-18T22:44:11.511Z,10.27
2022-12-18T22:46:49.412Z,11.20
2022-12-18T22:49:24.507Z,11.37
2022-12-18T22:51:51.903Z,10.60
2022-12-18T22:54:18.484Z,11.00
2022-12-18T22:56:45.069Z,10.50
2022-12-18T22:59:17.464Z,10.70
2022-12-18T23:01:45.335Z,11.57
2022-12-18T23:04:14.182Z,11.07
2022-12-18T23:06:42.033Z,11.63
2022-12-18T23:09:20.177Z,10.33
2022-12-18T23:11:47.380Z,11.70
2022-12-18T23:14:14.684Z,11.47
2022-12-18T23:16:41.146Z,11.20
2022-12-18T23:19:08.936Z,11.67
2022-12-18T23:21:35.410Z,10.97
2022-12-18T23:24:02.183Z,11.37
2022-12-18T23:26:29.264Z,11.07
2022-12-18T23:28:56.723Z,11.43
2022-12-18T23:31:26.399Z,12.00
2022-12-18T23:33:55.222Z,13.07
2022-12-18T23:36:22.718Z,11.60
2022-12-18T23:38:51.008Z,12.23
2022-12-18T23:41:19.247Z,11.60
2022-12-18T23:43:46.271Z,11.70
2022-12-18T23:46:34.651Z,11.60
2022-12-18T23:49:02.906Z,11.67
2022-12-18T23:51:32.483Z,12.00
2022-12-18T23:54:02.030Z,11.37
2022-12-18T23:56:30.259Z,11.30
2022-12-18T23:58:57.184Z,12.30
